Time;durP1;ratioP1;P1;durP2;ratioP2;P2;SDS_P1;SDS_P2;PMS_P1;PMS_P2;Temp;Humidity;BMP_temperature;BMP_pressure;BME280_temperature;BME280_humidity;BME280_pressure;Samples;Min_cycle;Max_cycle;Signal;HPM_P1;HPM_P2
2021/09/17 00:01:00;;;;;;;34.30;24.70;;;;;;;18.36;68.16;98450.04;113504;1184;96215;-78
2021/09/17 00:03:30;;;;;;;33.90;23.00;;;;;;;18.34;68.16;98446.12;113898;1193;97507;-83
2021/09/17 00:05:59;;;;;;;37.20;25.10;;;;;;;18.33;68.33;98444.18;113894;1192;109967;-84
2021/09/17 00:08:27;;;;;;;33.10;25.00;;;;;;;18.31;68.32;98445.80;113914;1192;96271;-83
2021/09/17 00:10:54;;;;;;;33.40;24.10;;;;;;;18.28;68.17;98445.69;113940;1193;107584;-82
2021/09/17 00:13:23;;;;;;;34.10;24.30;;;;;;;18.26;68.32;98444.34;113921;1193;94513;-84
2021/09/17 00:15:52;;;;;;;31.70;23.60;;;;;;;18.25;68.50;98444.45;113943;1193;94021;-83
2021/09/17 00:18:20;;;;;;;34.50;24.90;;;;;;;18.25;68.48;98444.86;113859;1192;109799;-83
2021/09/17 00:20:49;;;;;;;34.60;25.30;;;;;;;18.24;68.28;98440.66;113835;1192;96187;-82
2021/09/17 00:23:20;;;;;;;34.40;23.40;;;;;;;18.21;68.50;98437.54;113854;1192;106971;-82
2021/09/17 00:25:49;;;;;;;33.30;24.20;;;;;;;18.21;68.61;98438.28;113923;1192;96197;-82
2021/09/17 00:28:18;;;;;;;33.30;23.40;;;;;;;18.21;68.56;98435.83;113897;1192;97367;-80
2021/09/17 00:30:46;;;;;;;33.30;24.50;;;;;;;18.19;68.59;98438.32;113936;1192;108526;-81
2021/09/17 00:33:16;;;;;;;33.60;25.00;;;;;;;18.18;68.79;98440.41;113934;1192;96232;-80
2021/09/17 00:35:44;;;;;;;33.60;23.80;;;;;;;18.19;68.71;98438.20;113885;1192;107459;-81
2021/09/17 00:38:12;;;;;;;33.30;24.90;;;;;;;18.19;68.85;98438.92;113907;1193;95525;-84
2021/09/17 00:40:42;;;;;;;33.90;24.40;;;;;;;18.19;68.86;98441.79;113915;1192;96322;-83
2021/09/17 00:43:11;;;;;;;34.20;25.20;;;;;;;18.19;68.75;98441.80;113948;1192;109798;-84
2021/09/17 00:45:39;;;;;;;32.40;23.70;;;;;;;18.18;68.90;98446.13;113938;1192;95664;-83
2021/09/17 00:48:07;;;;;;;32.60;23.30;;;;;;;18.18;68.96;98448.48;113975;1192;107582;-83
2021/09/17 00:50:36;;;;;;;33.40;23.30;;;;;;;18.17;68.95;98445.40;113908;1192;94107;-84
2021/09/17 00:53:05;;;;;;;35.50;24.50;;;;;;;18.16;69.05;98440.25;113965;1192;94122;-83
2021/09/17 00:55:35;;;;;;;35.10;24.80;;;;;;;18.17;69.14;98440.89;113963;1192;110892;-81
2021/09/17 00:58:03;;;;;;;37.00;25.50;;;;;;;18.18;69.40;98437.42;113938;1192;96160;-82
2021/09/17 01:00:32;;;;;;;34.30;23.80;;;;;;;18.18;69.33;98434.37;113913;1192;107543;-82
2021/09/17 01:03:00;;;;;;;33.30;23.50;;;;;;;18.18;69.29;98428.36;113875;1191;96216;-82
2021/09/17 01:05:28;;;;;;;33.00;24.10;;;;;;;18.19;69.23;98430.31;113904;1193;96215;-83
2021/09/17 01:07:55;;;;;;;33.50;24.50;;;;;;;18.17;69.45;98430.96;113853;1192;110773;-83
2021/09/17 01:10:25;;;;;;;32.30;23.60;;;;;;;18.18;69.50;98429.08;113956;1192;96270;-82
2021/09/17 01:12:55;;;;;;;35.80;24.00;;;;;;;18.19;69.65;98424.66;113940;1192;107571;-83
2021/09/17 01:15:23;;;;;;;33.20;24.10;;;;;;;18.21;69.79;98422.67;113893;1192;96215;-83
2021/09/17 01:17:51;;;;;;;33.10;22.60;;;;;;;18.23;69.88;98416.73;113917;1192;93920;-82
2021/09/17 01:20:21;;;;;;;31.10;22.90;;;;;;;18.23;69.77;98417.41;113906;1192;109802;-83
2021/09/17 01:22:51;;;;;;;34.10;24.00;;;;;;;18.23;69.97;98418.84;113845;1192;94587;-84
2021/09/17 01:25:22;;;;;;;35.40;23.50;;;;;;;18.24;69.98;98412.96;113912;1193;108901;-85
2021/09/17 01:27:53;;;;;;;34.30;23.30;;;;;;;18.26;69.98;98405.95;113960;1192;96286;-83
2021/09/17 01:30:23;;;;;;;31.10;22.60;;;;;;;18.27;69.83;98402.58;113970;1192;96420;-83
2021/09/17 01:32:52;;;;;;;32.60;24.30;;;;;;;18.25;70.00;98396.67;113908;1192;108921;-84
2021/09/17 01:35:23;;;;;;;33.80;23.50;;;;;;;18.25;70.12;98394.92;113973;1191;96360;-83
2021/09/17 01:37:52;;;;;;;31.00;22.30;;;;;;;18.26;70.17;98397.68;113948;1193;107948;-84
2021/09/17 01:40:21;;;;;;;33.80;24.00;;;;;;;18.26;70.22;98400.17;113944;1193;93989;-84
2021/09/17 01:42:49;;;;;;;36.00;23.50;;;;;;;18.27;70.26;98396.86;113959;1192;96188;-85
2021/09/17 01:45:17;;;;;;;31.00;22.60;;;;;;;18.28;70.34;98396.93;113916;1192;109377;-85
2021/09/17 01:47:46;;;;;;;32.00;22.70;;;;;;;18.29;70.42;98401.09;113932;1193;96305;-83
2021/09/17 01:50:15;;;;;;;32.30;22.90;;;;;;;18.30;70.46;98402.80;113911;1192;107612;-83
2021/09/17 01:52:43;;;;;;;33.00;22.50;;;;;;;18.31;70.48;98398.02;113872;1192;96390;-83
2021/09/17 01:55:13;;;;;;;32.70;22.70;;;;;;;18.33;70.42;98391.73;113954;1192;93898;-82
2021/09/17 01:57:42;;;;;;;31.60;22.40;;;;;;;18.33;70.51;98389.90;113949;1193;109189;-83
2021/09/17 02:00:11;;;;;;;31.00;21.50;;;;;;;18.33;70.45;98390.64;113930;1193;96179;-83
2021/09/17 02:02:39;;;;;;;31.20;21.60;;;;;;;18.27;70.27;98389.54;113938;1193;107159;-84
2021/09/17 02:05:10;;;;;;;32.70;22.70;;;;;;;18.19;70.59;98384.73;113984;1192;96297;-83
2021/09/17 02:07:38;;;;;;;32.50;23.70;;;;;;;18.07;70.57;98382.82;113950;1191;96225;-83
2021/09/17 02:10:08;;;;;;;36.40;23.30;;;;;;;18.01;70.54;98377.77;113937;1192;109776;-85
2021/09/17 02:12:37;;;;;;;33.30;23.30;;;;;;;17.96;70.68;98373.05;113969;1192;96211;-81
2021/09/17 02:15:10;;;;;;;35.30;22.50;;;;;;;17.92;70.72;98367.39;113876;1193;107486;-79
2021/09/17 02:17:38;;;;;;;32.30;23.70;;;;;;;17.90;70.94;98366.41;113934;1193;96269;-80
2021/09/17 02:20:10;;;;;;;34.30;23.20;;;;;;;17.85;70.93;98370.02;114311;1192;96284;-81
2021/09/17 02:22:38;;;;;;;31.40;23.00;;;;;;;17.85;71.18;98368.70;113872;1192;109790;-81
2021/09/17 02:25:08;;;;;;;33.20;23.20;;;;;;;17.87;71.08;98364.63;113964;1192;93876;-82
2021/09/17 02:27:39;;;;;;;32.40;22.80;;;;;;;17.84;71.29;98365.04;113900;1192;105935;-81
2021/09/17 02:30:09;;;;;;;32.30;23.70;;;;;;;17.78;71.42;98372.84;113919;1192;96416;-82
2021/09/17 02:32:38;;;;;;;32.80;21.10;;;;;;;17.72;71.49;98366.86;113879;1192;96264;-80
2021/09/17 02:35:09;;;;;;;32.10;22.20;;;;;;;17.69;71.42;98364.11;113942;1193;109903;-82
2021/09/17 02:37:36;;;;;;;35.20;24.10;;;;;;;17.67;71.54;98359.73;113990;1191;96179;-82
2021/09/17 02:40:12;;;;;;;33.20;24.00;;;;;;;17.68;71.90;98359.92;113957;1192;107460;-83
2021/09/17 02:42:43;;;;;;;31.90;23.40;;;;;;;17.73;72.13;98353.30;113899;1192;93991;-82
2021/09/17 02:45:14;;;;;;;33.60;23.60;;;;;;;17.77;71.96;98354.59;113955;1191;96216;-79
2021/09/17 02:47:44;;;;;;;33.80;24.60;;;;;;;17.80;71.95;98355.21;113918;1192;109818;-78
2021/09/17 02:50:13;;;;;;;32.70;23.40;;;;;;;17.82;71.99;98352.23;113918;1192;93892;-79
2021/09/17 02:52:42;;;;;;;34.70;24.70;;;;;;;17.85;71.99;98351.02;113920;1193;107496;-79
2021/09/17 02:55:10;;;;;;;38.00;25.80;;;;;;;17.89;72.04;98350.40;113914;1192;94177;-81
2021/09/17 02:57:39;;;;;;;36.90;26.10;;;;;;;17.91;71.92;98346.46;113906;1192;96396;-82
2021/09/17 03:00:10;;;;;;;39.10;26.50;;;;;;;17.92;72.22;98348.06;113854;1192;109600;-80
2021/09/17 03:02:45;;;;;;;43.20;28.10;;;;;;;17.96;72.26;98348.54;113908;1192;93963;-79
2021/09/17 03:05:16;;;;;;;43.00;28.40;;;;;;;17.99;72.20;98344.38;113837;1192;110854;-84
2021/09/17 03:07:44;;;;;;;43.10;28.70;;;;;;;18.02;72.32;98343.39;113910;1192;94758;-83
2021/09/17 03:10:12;;;;;;;43.10;29.60;;;;;;;18.05;72.45;98335.70;113930;1192;93908;-82
2021/09/17 03:12:44;;;;;;;45.80;28.50;;;;;;;18.07;72.18;98332.60;113825;1191;109830;-83
2021/09/17 03:15:16;;;;;;;46.20;28.50;;;;;;;18.09;72.18;98325.52;113953;1193;95202;-85
2021/09/17 03:17:45;;;;;;;47.30;31.40;;;;;;;18.10;72.28;98320.20;113931;1192;107341;-82
2021/09/17 03:20:15;;;;;;;45.90;31.30;;;;;;;18.12;72.41;98320.90;113896;1192;96178;-83
2021/09/17 03:22:43;;;;;;;51.80;32.50;;;;;;;18.14;72.51;98323.04;113973;1192;93896;-80
2021/09/17 03:25:11;;;;;;;50.10;31.90;;;;;;;18.14;72.30;98323.13;113912;1192;110391;-84
2021/09/17 03:27:39;;;;;;;53.00;33.70;;;;;;;18.14;72.39;98322.96;113987;1193;96213;-85
2021/09/17 03:30:09;;;;;;;52.70;32.50;;;;;;;18.16;72.38;98316.83;113968;1191;107452;-81
2021/09/17 03:32:37;;;;;;;54.60;33.80;;;;;;;18.18;72.45;98313.75;113956;1192;96268;-86
2021/09/17 03:35:06;;;;;;;55.10;34.10;;;;;;;18.19;72.56;98314.52;113926;1192;93951;-85
2021/09/17 03:37:34;;;;;;;56.30;34.50;;;;;;;18.20;72.41;98310.80;113985;1192;110400;-84
2021/09/17 03:40:04;;;;;;;56.00;34.10;;;;;;;18.21;72.56;98312.65;113853;1192;96268;-86
2021/09/17 03:42:32;;;;;;;56.80;35.80;;;;;;;18.21;72.41;98313.77;114069;1192;107459;-84
2021/09/17 03:45:01;;;;;;;58.30;35.00;;;;;;;18.22;72.54;98312.55;113881;1192;96177;-85
2021/09/17 03:47:29;;;;;;;58.50;34.80;;;;;;;18.23;72.64;98310.86;113993;1191;96295;-83
2021/09/17 03:49:57;;;;;;;59.50;35.60;;;;;;;18.25;72.83;98312.26;113956;1192;109553;-82
2021/09/17 03:52:26;;;;;;;62.10;37.30;;;;;;;18.27;72.75;98310.36;113929;1193;93899;-82
2021/09/17 03:54:54;;;;;;;69.40;38.10;;;;;;;18.28;72.82;98310.45;113891;1192;107815;-83
2021/09/17 03:57:23;;;;;;;57.80;36.70;;;;;;;18.28;72.74;98307.52;113943;1192;93883;-82
2021/09/17 03:59:52;;;;;;;64.50;36.70;;;;;;;18.28;72.69;98312.71;113896;1193;96300;-83
2021/09/17 04:02:21;;;;;;;63.00;36.30;;;;;;;18.29;72.85;98311.92;113936;1191;109903;-82
2021/09/17 04:04:50;;;;;;;63.10;36.70;;;;;;;18.30;72.92;98309.10;113834;1192;94711;-85
2021/09/17 04:07:18;;;;;;;70.30;36.50;;;;;;;18.30;72.80;98311.04;113986;1192;107466;-85
2021/09/17 04:09:46;;;;;;;72.30;39.30;;;;;;;18.31;72.93;98314.94;113933;1191;95012;-84
2021/09/17 04:12:13;;;;;;;67.90;38.90;;;;;;;18.30;72.92;98310.17;113826;1192;96297;-83
2021/09/17 04:14:42;;;;;;;67.90;39.00;;;;;;;18.32;73.07;98307.86;113862;1192;109962;-80
2021/09/17 04:17:10;;;;;;;70.90;40.90;;;;;;;18.33;73.26;98303.46;113862;1192;96295;-84
2021/09/17 04:19:38;;;;;;;69.90;42.70;;;;;;;18.33;73.11;98305.61;113977;1192;107489;-81
2021/09/17 04:22:08;;;;;;;73.40;42.30;;;;;;;18.31;73.03;98303.64;113874;1192;94580;-80
2021/09/17 04:24:37;;;;;;;64.40;39.50;;;;;;;18.29;73.03;98302.90;113928;1191;96231;-84
2021/09/17 04:27:05;;;;;;;65.60;39.90;;;;;;;18.28;73.14;98298.70;113844;1192;109646;-83
2021/09/17 04:29:34;;;;;;;67.20;37.70;;;;;;;18.27;73.15;98292.79;113868;1193;95082;-77
2021/09/17 04:32:03;;;;;;;62.20;37.90;;;;;;;18.28;73.21;98295.92;113873;1193;107497;-74
2021/09/17 04:34:31;;;;;;;57.70;35.40;;;;;;;18.29;73.34;98296.82;113899;1191;93933;-74
2021/09/17 04:36:59;;;;;;;57.40;34.00;;;;;;;18.30;73.19;98302.25;113959;1192;96207;-75
2021/09/17 04:39:26;;;;;;;58.80;35.20;;;;;;;18.32;73.35;98297.31;113819;1192;109772;-74
2021/09/17 04:41:54;;;;;;;58.10;35.70;;;;;;;18.33;73.36;98295.17;113926;1192;96202;-75
2021/09/17 04:44:22;;;;;;;53.80;33.50;;;;;;;18.35;73.42;98295.16;113947;1192;107284;-74
2021/09/17 04:46:50;;;;;;;49.90;33.50;;;;;;;18.35;73.38;98298.61;113876;1192;96268;-74
2021/09/17 04:49:18;;;;;;;49.80;32.10;;;;;;;18.36;73.39;98298.40;113930;1192;96173;-75
2021/09/17 04:51:47;;;;;;;53.20;32.00;;;;;;;18.37;73.39;98297.77;113897;1192;109794;-73
2021/09/17 04:54:17;;;;;;;45.20;30.30;;;;;;;18.38;73.46;98295.09;113898;1192;96210;-73
2021/09/17 04:56:44;;;;;;;46.90;32.00;;;;;;;18.39;73.43;98295.02;113927;1192;107488;-77
2021/09/17 04:59:12;;;;;;;48.30;30.50;;;;;;;18.39;73.38;98293.54;113922;1192;97002;-74
2021/09/17 05:01:40;;;;;;;44.70;28.60;;;;;;;18.40;73.36;98289.29;113913;1192;96302;-75
2021/09/17 05:04:09;;;;;;;41.20;28.50;;;;;;;18.39;73.39;98292.12;113761;1192;109806;-75
2021/09/17 05:06:37;;;;;;;43.90;28.80;;;;;;;18.37;73.36;98292.14;113924;1192;94449;-75
2021/09/17 05:09:04;;;;;;;42.50;27.70;;;;;;;18.35;73.53;98299.55;113937;1192;107480;-76
2021/09/17 05:11:32;;;;;;;40.80;28.00;;;;;;;18.35;73.52;98300.34;113989;1192;96290;-75
2021/09/17 05:14:00;;;;;;;39.50;26.80;;;;;;;18.35;73.63;98294.34;113952;1192;95090;-75
2021/09/17 05:16:32;;;;;;;37.30;26.20;;;;;;;18.36;73.43;98291.61;113944;1193;109792;-75
2021/09/17 05:19:00;;;;;;;39.40;27.60;;;;;;;18.33;73.44;98291.54;113948;1192;96297;-75
2021/09/17 05:21:28;;;;;;;38.40;26.30;;;;;;;18.32;73.56;98292.06;113952;1192;107486;-75
2021/09/17 05:23:56;;;;;;;41.20;26.00;;;;;;;18.32;73.59;98286.52;113914;1191;96232;-75
2021/09/17 05:26:24;;;;;;;40.30;27.70;;;;;;;18.33;73.70;98279.23;113953;1192;95158;-73
2021/09/17 05:28:52;;;;;;;37.80;25.90;;;;;;;18.34;73.63;98274.98;113935;1183;110179;-75
2021/09/17 05:31:20;;;;;;;73.90;52.60;;;;;;;18.34;73.77;98278.67;113932;1192;93902;-76
2021/09/17 05:33:48;;;;;;;58.30;40.10;;;;;;;18.35;73.72;98280.58;113960;1192;107462;-75
2021/09/17 05:36:16;;;;;;;42.60;28.10;;;;;;;18.36;73.59;98275.55;113874;1192;96358;-75
2021/09/17 05:38:43;;;;;;;37.90;26.20;;;;;;;18.37;73.75;98269.02;113942;1193;96207;-76
2021/09/17 05:41:16;;;;;;;38.40;26.10;;;;;;;18.38;73.62;98274.42;113954;1192;110257;-74
2021/09/17 05:43:44;;;;;;;37.20;24.30;;;;;;;18.37;73.64;98269.75;113932;1191;96139;-74
2021/09/17 05:46:11;;;;;;;36.70;24.50;;;;;;;18.37;73.69;98276.73;113953;1192;107504;-75
2021/09/17 05:48:39;;;;;;;33.70;23.20;;;;;;;18.38;73.76;98280.21;113887;1193;93967;-76
2021/09/17 05:51:07;;;;;;;34.10;23.10;;;;;;;18.39;73.82;98278.41;113956;1192;93968;-74
2021/09/17 05:53:55;;;;;;;37.60;23.90;;;;;;;18.41;73.94;98284.48;113969;1192;109777;-74
2021/09/17 05:56:23;;;;;;;31.80;23.00;;;;;;;18.41;73.83;98280.66;113912;1192;96726;-74
2021/09/17 05:58:53;;;;;;;33.60;21.70;;;;;;;18.43;73.94;98278.36;113902;1191;107546;-75
2021/09/17 06:01:20;;;;;;;33.10;22.70;;;;;;;18.44;74.00;98275.19;113934;1193;96242;-75
2021/09/17 06:03:49;;;;;;;33.70;22.50;;;;;;;18.45;73.96;98280.26;113943;1191;93907;-74
2021/09/17 06:06:18;;;;;;;30.90;21.00;;;;;;;18.47;73.91;98282.49;113962;1191;111114;-74
2021/09/17 06:08:48;;;;;;;33.40;21.80;;;;;;;18.48;73.99;98282.05;113992;1193;93899;-75
2021/09/17 06:11:19;;;;;;;32.50;22.00;;;;;;;18.49;74.02;98278.52;113467;1193;107965;-75
2021/09/17 06:13:47;;;;;;;30.90;21.20;;;;;;;18.49;73.95;98279.59;113829;1192;96886;-75
2021/09/17 06:16:15;;;;;;;31.30;21.80;;;;;;;18.47;74.02;98276.77;113820;1192;94012;-75
2021/09/17 06:18:47;;;;;;;33.10;23.00;;;;;;;18.47;74.07;98272.19;113813;1192;109771;-73
2021/09/17 06:21:15;;;;;;;57.50;44.20;;;;;;;18.46;73.96;98267.73;113881;1192;93924;-75
2021/09/17 06:23:43;;;;;;;39.80;27.40;;;;;;;18.46;73.90;98265.11;113846;1192;107488;-77
2021/09/17 06:26:12;;;;;;;35.30;23.50;;;;;;;18.44;73.96;98262.55;113799;1192;93990;-75
2021/09/17 06:28:40;;;;;;;34.70;22.30;;;;;;;18.44;74.04;98261.86;113842;1193;96339;-77
2021/09/17 06:31:08;;;;;;;32.80;22.70;;;;;;;18.43;73.90;98263.59;113828;1192;109822;-74
2021/09/17 06:33:36;;;;;;;34.00;22.30;;;;;;;18.42;74.00;98259.02;113878;1192;96158;-74
2021/09/17 06:36:04;;;;;;;33.50;23.10;;;;;;;18.43;74.07;98254.48;113870;1193;107475;-72
2021/09/17 06:38:32;;;;;;;34.00;23.80;;;;;;;18.43;74.07;98252.06;113844;1193;95095;-75
2021/09/17 06:41:01;;;;;;;31.80;23.10;;;;;;;18.45;74.16;98253.30;113772;1193;96268;-75
2021/09/17 06:43:29;;;;;;;33.80;23.70;;;;;;;18.47;74.11;98251.46;113861;1192;109095;-76
2021/09/17 06:46:01;;;;;;;34.00;24.30;;;;;;;18.48;74.08;98250.11;113845;1192;94035;-75
2021/09/17 06:48:29;;;;;;;36.80;25.60;;;;;;;18.49;74.11;98245.73;114386;1192;107714;-75
2021/09/17 06:50:57;;;;;;;34.20;25.30;;;;;;;18.49;74.22;98246.23;113851;1192;96318;-74
2021/09/17 06:53:25;;;;;;;34.00;24.10;;;;;;;18.50;74.12;98247.01;113961;1192;96268;-75
2021/09/17 06:55:53;;;;;;;35.60;25.20;;;;;;;18.52;74.22;98242.30;113860;1193;109803;-75
2021/09/17 06:58:20;;;;;;;34.40;24.60;;;;;;;18.56;74.17;98242.38;113929;1191;96177;-75
2021/09/17 07:00:48;;;;;;;36.10;25.00;;;;;;;18.58;74.10;98239.41;113861;1192;107448;-75
2021/09/17 07:03:16;;;;;;;34.90;25.00;;;;;;;18.60;74.21;98239.19;113917;1191;96215;-75
2021/09/17 07:05:45;;;;;;;37.10;26.70;;;;;;;18.63;74.13;98240.11;113931;1192;94007;-74
2021/09/17 07:08:15;;;;;;;37.80;26.20;;;;;;;18.65;74.23;98240.63;113949;1192;109721;-75
2021/09/17 07:10:42;;;;;;;37.60;25.40;;;;;;;18.66;74.20;98237.17;113990;1192;96300;-75
2021/09/17 07:13:11;;;;;;;35.90;26.80;;;;;;;18.67;74.15;98239.76;113973;1191;107270;-75
2021/09/17 07:15:41;;;;;;;36.00;25.90;;;;;;;18.69;74.27;98237.72;113942;1192;95003;-75
2021/09/17 07:18:10;;;;;;;35.20;25.10;;;;;;;18.71;74.20;98237.86;113980;1192;96879;-74
2021/09/17 07:20:39;;;;;;;34.90;25.50;;;;;;;18.71;74.12;98239.08;113956;1193;109799;-74
2021/09/17 07:23:10;;;;;;;35.80;26.30;;;;;;;18.71;74.25;98234.44;113946;1193;93904;-75
2021/09/17 07:25:40;;;;;;;35.50;26.40;;;;;;;18.72;74.20;98232.38;113974;1191;107513;-76
2021/09/17 07:28:10;;;;;;;36.20;25.90;;;;;;;18.73;74.25;98233.71;113938;1192;94044;-76
2021/09/17 07:30:39;;;;;;;39.20;27.20;;;;;;;18.73;74.26;98232.05;113978;1193;94042;-75
2021/09/17 07:33:07;;;;;;;36.70;27.20;;;;;;;18.74;74.30;98228.37;113944;1192;109914;-75
2021/09/17 07:35:36;;;;;;;37.40;26.10;;;;;;;18.76;74.31;98229.39;113969;1183;96299;-75
2021/09/17 07:38:04;;;;;;;36.90;25.70;;;;;;;18.77;74.23;98228.03;113927;1192;107488;-75
2021/09/17 07:40:32;;;;;;;35.40;26.60;;;;;;;18.77;74.36;98224.98;113952;1192;96269;-76
2021/09/17 07:43:00;;;;;;;37.60;27.20;;;;;;;18.77;74.36;98221.36;113938;1192;96236;-75
2021/09/17 07:45:27;;;;;;;37.60;26.40;;;;;;;18.76;74.35;98220.90;113894;1192;109907;-76
2021/09/17 07:47:56;;;;;;;38.70;27.30;;;;;;;18.75;74.44;98219.94;113866;1192;96312;-79
2021/09/17 07:50:24;;;;;;;39.40;26.80;;;;;;;18.75;74.51;98215.25;113885;1193;107519;-76
2021/09/17 07:52:53;;;;;;;35.90;26.40;;;;;;;18.76;74.44;98217.13;113826;1192;96206;-75
2021/09/17 07:55:22;;;;;;;37.00;26.90;;;;;;;18.74;74.49;98219.30;113757;1192;96215;-74
2021/09/17 07:57:49;;;;;;;37.40;26.90;;;;;;;18.72;74.38;98214.77;113964;1193;110002;-74
2021/09/17 08:00:17;;;;;;;36.80;26.30;;;;;;;18.71;74.34;98214.37;113876;1192;96153;-74
2021/09/17 08:02:45;;;;;;;38.40;26.80;;;;;;;18.70;74.40;98213.60;113912;1193;107540;-75
2021/09/17 08:05:15;;;;;;;37.80;26.70;;;;;;;18.68;74.35;98208.11;113615;1192;96245;-75
2021/09/17 08:07:43;;;;;;;37.40;26.30;;;;;;;18.66;74.41;98211.90;113593;1192;93985;-74
2021/09/17 08:10:11;;;;;;;37.80;25.50;;;;;;;18.64;74.47;98207.10;113712;1192;110417;-75
2021/09/17 08:12:40;;;;;;;37.80;26.80;;;;;;;18.63;74.47;98208.31;113732;1192;94794;-75
2021/09/17 08:15:09;;;;;;;38.00;26.80;;;;;;;18.60;74.51;98206.83;113762;1192;107436;-74
2021/09/17 08:17:39;;;;;;;36.10;26.60;;;;;;;18.57;74.51;98206.83;113619;1192;96326;-75
2021/09/17 08:20:09;;;;;;;38.30;26.30;;;;;;;18.57;74.51;98208.11;113800;1192;97372;-76
2021/09/17 08:22:37;;;;;;;37.40;26.90;;;;;;;18.57;74.53;98205.63;113767;1192;109811;-76
2021/09/17 08:25:08;;;;;;;38.60;27.00;;;;;;;18.55;74.49;98204.52;113912;1191;93905;-74
2021/09/17 08:27:41;;;;;;;38.70;28.30;;;;;;;18.53;74.53;98205.33;113773;1191;107470;-75
2021/09/17 08:30:11;;;;;;;37.00;27.40;;;;;;;18.51;74.60;98203.44;113619;1192;94009;-74
2021/09/17 08:32:40;;;;;;;40.40;27.00;;;;;;;18.51;74.72;98205.46;113855;1192;96317;-75
2021/09/17 08:35:11;;;;;;;39.10;28.10;;;;;;;18.50;74.77;98203.34;113797;1192;109916;-75
2021/09/17 08:37:41;;;;;;;37.60;27.10;;;;;;;18.51;74.74;98208.29;113854;1192;93898;-74
2021/09/17 08:40:14;;;;;;;39.80;27.40;;;;;;;18.50;74.74;98204.62;113798;1192;107512;-74
2021/09/17 08:42:44;;;;;;;37.10;26.50;;;;;;;18.49;74.78;98204.64;113780;1192;96302;-75
2021/09/17 08:45:13;;;;;;;39.70;27.90;;;;;;;18.48;74.90;98204.34;113728;1192;96214;-74
2021/09/17 08:47:48;;;;;;;40.90;28.20;;;;;;;18.48;74.81;98200.27;113697;1192;109811;-75
2021/09/17 08:50:19;;;;;;;38.20;26.60;;;;;;;18.47;74.77;98194.18;113780;1192;96223;-75
2021/09/17 08:52:48;;;;;;;36.90;26.20;;;;;;;18.45;74.73;98190.70;113797;1192;107362;-75
2021/09/17 08:55:18;;;;;;;38.50;26.30;;;;;;;18.43;74.68;98185.58;113739;1191;96181;-75
2021/09/17 08:57:47;;;;;;;37.60;26.10;;;;;;;18.39;74.82;98179.85;113804;1192;96237;-75
2021/09/17 09:00:29;;;;;;;40.10;26.70;;;;;;;18.38;74.74;98178.92;113832;1192;109829;-76
2021/09/17 09:03:01;;;;;;;35.00;25.40;;;;;;;18.35;74.87;98171.21;113818;1192;96176;-75
2021/09/17 09:05:34;;;;;;;34.70;24.40;;;;;;;18.34;74.80;98173.89;113804;1192;106986;-75
2021/09/17 09:08:06;;;;;;;39.50;26.90;;;;;;;18.34;74.88;98172.48;113761;1192;96236;-75
2021/09/17 09:10:34;;;;;;;37.10;25.20;;;;;;;18.33;74.98;98175.65;113754;1192;96297;-75
2021/09/17 09:13:06;;;;;;;37.60;25.90;;;;;;;18.33;75.02;98178.68;113817;1192;109834;-76
2021/09/17 09:15:36;;;;;;;35.60;25.10;;;;;;;18.33;75.06;98181.23;113808;1192;93886;-74
2021/09/17 09:18:13;;;;;;;37.90;25.00;;;;;;;18.32;74.93;98178.63;113800;1192;108927;-76
2021/09/17 09:20:49;;;;;;;34.50;23.60;;;;;;;18.32;75.00;98176.64;113722;1192;96217;-75
2021/09/17 09:23:23;;;;;;;34.80;23.60;;;;;;;18.30;74.85;98175.58;113789;1192;96278;-75
2021/09/17 09:25:54;;;;;;;34.30;24.30;;;;;;;18.27;75.13;98176.08;113828;1192;108576;-76
2021/09/17 09:28:33;;;;;;;36.60;23.50;;;;;;;18.26;74.89;98177.43;113672;1192;96261;-75
2021/09/17 09:31:13;;;;;;;35.50;23.10;;;;;;;18.27;74.92;98177.09;113811;1192;107539;-75
2021/09/17 09:33:47;;;;;;;32.20;22.40;;;;;;;18.24;75.06;98174.70;113811;1192;96193;-75
2021/09/17 09:36:18;;;;;;;30.80;21.40;;;;;;;18.22;74.97;98174.77;113774;1184;94702;-75
2021/09/17 09:38:55;;;;;;;32.40;21.00;;;;;;;18.19;74.86;98180.55;113751;1192;109811;-74
2021/09/17 09:41:28;;;;;;;31.30;21.70;;;;;;;18.14;74.93;98177.98;113710;1193;96270;-75
2021/09/17 09:44:14;;;;;;;32.90;21.20;;;;;;;18.12;74.99;98177.52;113702;1193;107977;-75
2021/09/17 09:46:45;;;;;;;34.80;21.80;;;;;;;18.09;74.99;98173.92;113736;1192;94019;-72
2021/09/17 09:49:27;;;;;;;31.10;20.10;;;;;;;18.07;74.96;98170.07;113780;1193;96284;-73
2021/09/17 09:51:58;;;;;;;;;;;;;;;18.05;75.12;98168.38;113767;1192;109363;-75
2021/09/17 09:54:31;;;;;;;29.90;19.20;;;;;;;18.00;75.01;98171.53;113812;1192;96222;-74
2021/09/17 09:57:02;;;;;;;29.70;19.80;;;;;;;17.99;75.17;98174.21;113811;1192;107624;-74
2021/09/17 09:59:33;;;;;;;36.40;22.90;;;;;;;17.98;75.12;98176.04;113791;1192;96284;-73
2021/09/17 10:02:07;;;;;;;33.60;21.40;;;;;;;17.97;75.28;98173.89;113780;1192;96291;-74
2021/09/17 10:04:38;;;;;;;30.40;19.30;;;;;;;17.96;75.22;98169.73;113772;1192;109877;-75
2021/09/17 10:07:11;;;;;;;23.10;12.80;;;;;;;17.94;75.11;98166.21;113679;1193;96252;-75
2021/09/17 10:09:41;;;;;;;18.60;8.50;;;;;;;17.87;75.05;98163.59;113752;1192;107510;-75
2021/09/17 10:12:13;;;;;;;13.90;6.70;;;;;;;17.79;75.07;98157.66;113695;1192;96307;-73
2021/09/17 10:14:43;;;;;;;10.50;5.70;;;;;;;17.71;74.98;98163.94;113736;1192;96938;-75
2021/09/17 10:17:20;;;;;;;10.60;4.80;;;;;;;17.63;75.08;98171.69;113741;1192;110581;-74
2021/09/17 10:19:50;;;;;;;9.00;4.90;;;;;;;17.54;74.93;98178.36;113711;1192;96278;-75
2021/09/17 10:22:43;;;;;;;10.00;5.50;;;;;;;17.43;75.02;98179.60;113772;1192;107621;-72
2021/09/17 10:25:22;;;;;;;7.60;4.60;;;;;;;17.34;74.95;98184.39;113842;1191;96230;-74
2021/09/17 10:28:11;;;;;;;14.10;6.00;;;;;;;17.28;75.28;98189.94;113712;1192;96219;-73
2021/09/17 10:30:42;;;;;;;14.00;6.00;;;;;;;17.20;75.16;98193.50;113594;1192;109816;-74
2021/09/17 10:33:26;;;;;;;11.70;5.80;;;;;;;17.11;75.14;98195.63;113735;1192;96236;-75
2021/09/17 10:35:55;;;;;;;11.40;5.90;;;;;;;16.98;74.91;98193.70;113721;1192;107545;-73
2021/09/17 10:38:29;;;;;;;12.40;6.50;;;;;;;16.84;74.80;98189.80;113744;1192;94376;-74
2021/09/17 10:41:02;;;;;;;11.90;6.00;;;;;;;16.77;75.07;98184.86;113743;1193;96420;-74
2021/09/17 10:43:33;;;;;;;11.60;5.90;;;;;;;16.71;74.97;98179.13;113730;1192;110271;-74
2021/09/17 10:46:21;;;;;;;13.10;6.60;;;;;;;16.63;74.99;98172.59;113803;1191;94926;-75
2021/09/17 10:48:57;;;;;;;14.60;7.40;;;;;;;16.53;75.01;98174.05;113727;1192;107548;-73
2021/09/17 10:51:36;;;;;;;15.00;7.40;;;;;;;16.48;75.24;98184.34;113583;1192;96655;-75
2021/09/17 10:54:12;;;;;;;16.20;7.70;;;;;;;16.41;75.20;98192.44;113727;1192;94428;-73
2021/09/17 10:56:49;;;;;;;16.00;7.70;;;;;;;16.36;75.24;98198.89;113718;1192;110805;-74
2021/09/17 10:59:29;;;;;;;15.80;8.30;;;;;;;16.30;75.15;98199.50;113732;1192;96141;-75
2021/09/17 11:02:07;;;;;;;15.90;7.50;;;;;;;16.25;75.36;98197.02;113824;1193;107427;-73
2021/09/17 11:04:44;;;;;;;13.70;7.00;;;;;;;16.25;75.46;98199.77;113817;1192;94652;-74
2021/09/17 11:07:21;;;;;;;13.60;7.00;;;;;;;16.26;75.50;98202.57;113855;1192;93997;-73
2021/09/17 11:09:50;;;;;;;15.70;7.40;;;;;;;16.25;75.40;98199.78;113721;1192;109898;-73
2021/09/17 11:12:21;;;;;;;10.30;5.50;;;;;;;16.26;75.41;98190.76;113646;1192;97374;-75
2021/09/17 11:15:05;;;;;;;12.10;6.20;;;;;;;16.22;75.36;98183.58;113652;1192;107759;-74
2021/09/17 11:17:39;;;;;;;15.70;6.00;;;;;;;16.23;75.45;98179.77;113670;1192;96269;-74
2021/09/17 11:20:12;;;;;;;10.50;5.70;;;;;;;16.23;75.33;98173.31;113833;1192;96002;-74